createdAt,value
2023-04-29T00:00:03.315Z,945.28
2023-04-29T00:01:03.389Z,945.31
2023-04-29T00:02:03.307Z,945.29
2023-04-29T00:03:03.388Z,945.31
2023-04-29T00:04:03.498Z,945.32
2023-04-29T00:05:03.675Z,945.28
2023-04-29T00:06:03.362Z,945.29
2023-04-29T00:07:03.286Z,945.28
2023-04-29T00:08:03.249Z,945.25
2023-04-29T00:09:03.250Z,945.26
2023-04-29T00:10:03.225Z,945.29
2023-04-29T00:11:03.263Z,945.21
2023-04-29T00:12:03.239Z,945.21
2023-04-29T00:13:03.194Z,945.21
2023-04-29T00:14:03.284Z,945.20
2023-04-29T00:15:03.321Z,945.21
2023-04-29T00:16:03.215Z,945.23
2023-04-29T00:17:03.183Z,945.23
2023-04-29T00:18:03.249Z,945.23
2023-04-29T00:19:03.126Z,945.22
2023-04-29T00:20:03.126Z,945.20
2023-04-29T00:21:03.084Z,945.21
2023-04-29T00:22:03.126Z,945.22
2023-04-29T00:23:03.120Z,945.16
2023-04-29T00:24:03.065Z,945.15
2023-04-29T00:25:03.114Z,945.16
2023-04-29T00:26:03.058Z,945.22
2023-04-29T00:27:03.047Z,945.19
2023-04-29T00:28:03.013Z,945.23
2023-04-29T00:29:03.015Z,945.30
2023-04-29T00:30:02.988Z,945.32
2023-04-29T00:31:02.975Z,945.37
2023-04-29T00:32:03.028Z,945.43
2023-04-29T00:33:02.953Z,945.37
2023-04-29T00:34:02.956Z,945.33
2023-04-29T00:35:02.936Z,945.29
2023-04-29T00:36:02.906Z,945.30
2023-04-29T00:37:02.904Z,945.34
2023-04-29T00:38:02.877Z,945.37
2023-04-29T00:39:02.902Z,945.39
2023-04-29T00:40:02.895Z,945.39
2023-04-29T00:41:02.846Z,945.34
2023-04-29T00:42:02.848Z,945.34
2023-04-29T00:43:02.815Z,945.30
2023-04-29T00:44:02.813Z,945.29
2023-04-29T00:45:02.849Z,945.26
2023-04-29T00:46:02.869Z,945.26
2023-04-29T00:47:02.811Z,945.35
2023-04-29T00:48:02.794Z,945.30
2023-04-29T00:49:02.753Z,945.29
2023-04-29T00:50:02.799Z,945.24
2023-04-29T00:51:02.724Z,945.30
2023-04-29T00:52:02.725Z,945.23
2023-04-29T00:53:06.961Z,945.25
2023-04-29T00:54:02.692Z,945.21
2023-04-29T00:55:02.703Z,945.22
2023-04-29T00:56:02.708Z,945.24
2023-04-29T00:57:02.660Z,945.25
2023-04-29T00:58:02.789Z,945.27
2023-04-29T00:59:02.660Z,945.27
2023-04-29T01:00:02.627Z,945.36
2023-04-29T01:01:02.758Z,945.34
2023-04-29T01:02:02.600Z,945.34
2023-04-29T01:03:02.724Z,945.41
2023-04-29T01:04:02.838Z,945.36
2023-04-29T01:05:02.595Z,945.38
2023-04-29T01:06:02.580Z,945.37
2023-04-29T01:07:02.567Z,945.45
2023-04-29T01:08:02.558Z,945.41
2023-04-29T01:09:02.530Z,945.47
2023-04-29T01:10:02.553Z,945.51
2023-04-29T01:11:02.605Z,945.55
2023-04-29T01:12:02.512Z,945.61
2023-04-29T01:13:02.506Z,945.68
2023-04-29T01:14:02.465Z,945.74
2023-04-29T01:15:02.461Z,945.74
2023-04-29T01:16:02.481Z,945.77
2023-04-29T01:17:02.506Z,945.79
2023-04-29T01:18:02.492Z,945.75
2023-04-29T01:19:02.406Z,945.71
2023-04-29T01:20:02.396Z,945.50
2023-04-29T01:21:02.407Z,945.50
2023-04-29T01:22:02.430Z,945.53
2023-04-29T01:23:02.411Z,945.49
2023-04-29T01:24:02.398Z,945.53
2023-04-29T01:25:02.372Z,945.52
2023-04-29T01:26:02.400Z,945.57
2023-04-29T01:27:02.462Z,945.57
2023-04-29T01:28:02.409Z,945.54
2023-04-29T01:29:02.354Z,945.47
2023-04-29T01:30:02.354Z,945.46
2023-04-29T01:31:02.358Z,945.40
2023-04-29T01:32:02.308Z,945.40
2023-04-29T01:33:02.367Z,945.42
2023-04-29T01:34:02.278Z,945.40
2023-04-29T01:35:02.313Z,945.44
2023-04-29T01:36:02.245Z,945.47
2023-04-29T01:37:02.311Z,945.36
2023-04-29T01:38:02.277Z,945.42
2023-04-29T01:39:02.237Z,945.45
2023-04-29T01:40:02.268Z,945.48
2023-04-29T01:41:02.221Z,945.51
2023-04-29T01:42:02.249Z,945.51
2023-04-29T01:43:02.220Z,945.51
2023-04-29T01:44:02.288Z,945.52
2023-04-29T01:45:02.209Z,945.52
2023-04-29T01:46:02.195Z,945.58
2023-04-29T01:47:02.251Z,945.56
2023-04-29T01:48:02.225Z,945.57
2023-04-29T01:49:02.151Z,945.50
2023-04-29T01:50:05.135Z,945.54
2023-04-29T01:51:02.168Z,945.55
2023-04-29T01:52:02.129Z,945.58
2023-04-29T01:53:02.160Z,945.53
2023-04-29T01:54:02.129Z,945.53
2023-04-29T01:55:02.107Z,945.52
2023-04-29T01:56:02.122Z,945.51
2023-04-29T01:57:02.107Z,945.54
2023-04-29T01:58:02.062Z,945.51
2023-04-29T01:59:02.119Z,945.53
2023-04-29T02:00:02.084Z,945.53
2023-04-29T02:01:02.152Z,945.57
2023-04-29T02:02:02.065Z,945.56
2023-04-29T02:03:02.266Z,945.57
2023-04-29T02:04:02.160Z,945.58
2023-04-29T02:05:02.018Z,945.57
2023-04-29T02:06:01.972Z,945.58
2023-04-29T02:07:01.979Z,945.58
2023-04-29T02:08:01.911Z,945.59
2023-04-29T02:09:01.891Z,945.59
2023-04-29T02:10:02.013Z,945.58
2023-04-29T02:11:01.904Z,945.59
2023-04-29T02:12:01.947Z,945.57
2023-04-29T02:13:01.840Z,945.51
2023-04-29T02:14:01.938Z,945.57
2023-04-29T02:15:01.979Z,945.53
2023-04-29T02:16:01.871Z,945.58
2023-04-29T02:17:01.852Z,945.52
2023-04-29T02:18:01.869Z,945.55
2023-04-29T02:19:01.931Z,945.55
2023-04-29T02:20:01.784Z,945.55
2023-04-29T02:21:01.817Z,945.57
2023-04-29T02:22:01.768Z,945.55
2023-04-29T02:23:01.751Z,945.53
2023-04-29T02:24:01.805Z,945.54
2023-04-29T02:25:01.819Z,945.51
2023-04-29T02:26:01.719Z,945.54
2023-04-29T02:27:01.752Z,945.47
2023-04-29T02:28:01.807Z,945.51
2023-04-29T02:29:01.770Z,945.50
2023-04-29T02:30:01.726Z,945.45
2023-04-29T02:31:01.729Z,945.45
2023-04-29T02:32:01.789Z,945.47
2023-04-29T02:33:01.766Z,945.48
2023-04-29T02:34:01.742Z,945.46
2023-04-29T02:35:01.600Z,945.46
2023-04-29T02:36:01.577Z,945.50
2023-04-29T02:37:01.620Z,945.50
2023-04-29T02:38:01.575Z,945.46
2023-04-29T02:39:01.513Z,945.47
2023-04-29T02:40:01.504Z,945.45
2023-04-29T02:41:01.541Z,945.43
2023-04-29T02:42:01.523Z,945.40
2023-04-29T02:43:01.547Z,945.43
2023-04-29T02:44:01.451Z,945.37
2023-04-29T02:45:01.465Z,945.43
2023-04-29T02:46:01.493Z,945.44
2023-04-29T02:47:01.417Z,945.41
2023-04-29T02:48:01.440Z,945.40
2023-04-29T02:49:01.500Z,945.43
2023-04-29T02:50:01.427Z,945.38
2023-04-29T02:51:01.383Z,945.41
2023-04-29T02:52:01.409Z,945.43
2023-04-29T02:53:01.340Z,945.44
2023-04-29T02:54:01.350Z,945.45
2023-04-29T02:55:01.348Z,945.46
2023-04-29T02:56:01.338Z,945.45
2023-04-29T02:57:01.303Z,945.42
2023-04-29T02:58:01.399Z,945.43
2023-04-29T02:59:01.273Z,945.42
2023-04-29T03:00:01.305Z,945.42
2023-04-29T03:01:01.309Z,945.38
2023-04-29T03:02:01.252Z,945.44
2023-04-29T03:03:01.427Z,945.44
2023-04-29T03:04:01.372Z,945.40
2023-04-29T03:05:01.269Z,945.39
2023-04-29T03:06:01.220Z,945.40
2023-04-29T03:07:01.195Z,945.41
2023-04-29T03:08:01.212Z,945.46
2023-04-29T03:09:01.178Z,945.35
2023-04-29T03:10:01.198Z,945.38
2023-04-29T03:11:01.222Z,945.34
2023-04-29T03:12:01.202Z,945.31
2023-04-29T03:13:01.118Z,945.30
2023-04-29T03:14:01.146Z,945.29
2023-04-29T03:15:01.115Z,945.33
2023-04-29T03:16:01.153Z,945.32
2023-04-29T03:17:01.129Z,945.39
2023-04-29T03:18:01.109Z,945.32
2023-04-29T03:19:01.052Z,945.28
2023-04-29T03:20:01.075Z,945.31
2023-04-29T03:21:01.017Z,945.33
2023-04-29T03:22:01.033Z,945.29
2023-04-29T03:23:01.068Z,945.30
2023-04-29T03:24:01.079Z,945.33
2023-04-29T03:25:00.994Z,945.27
2023-04-29T03:26:01.189Z,945.28
2023-04-29T03:27:01.022Z,945.31
2023-04-29T03:28:01.004Z,945.30
2023-04-29T03:29:00.949Z,945.28
2023-04-29T03:30:00.921Z,945.29
2023-04-29T03:31:08.056Z,945.29
2023-04-29T03:32:00.913Z,945.28
2023-04-29T03:33:00.900Z,945.35
2023-04-29T03:34:00.870Z,945.29
2023-04-29T03:35:03.509Z,945.26
2023-04-29T03:36:00.841Z,945.28
2023-04-29T03:37:00.846Z,945.27
2023-04-29T03:38:00.821Z,945.25
2023-04-29T03:39:00.822Z,945.25
2023-04-29T03:40:00.841Z,945.26
2023-04-29T03:41:00.792Z,945.25
2023-04-29T03:42:00.792Z,945.27
2023-04-29T03:43:00.769Z,945.23
2023-04-29T03:44:00.788Z,945.25
2023-04-29T03:45:00.729Z,945.26
2023-04-29T03:46:00.816Z,945.31
2023-04-29T03:47:00.717Z,945.30
2023-04-29T03:48:00.739Z,945.31
2023-04-29T03:49:00.684Z,945.33
2023-04-29T03:50:00.678Z,945.28
2023-04-29T03:51:00.659Z,945.29
2023-04-29T03:52:00.677Z,945.34
2023-04-29T03:53:00.670Z,945.31
2023-04-29T03:54:00.646Z,945.31
2023-04-29T03:55:00.624Z,945.36
2023-04-29T03:56:00.598Z,945.35
2023-04-29T03:57:00.589Z,945.34
2023-04-29T03:58:01.082Z,945.33
2023-04-29T03:59:00.574Z,945.34
2023-04-29T04:00:00.570Z,945.33
2023-04-29T04:01:00.558Z,945.34
2023-04-29T04:02:00.586Z,945.35
2023-04-29T04:03:02.724Z,945.38
2023-04-29T04:04:00.708Z,945.39
2023-04-29T04:05:00.536Z,945.41
2023-04-29T04:06:00.558Z,945.46
2023-04-29T04:07:00.484Z,945.43
2023-04-29T04:08:00.536Z,945.43
2023-04-29T04:09:00.451Z,945.40
2023-04-29T04:10:00.448Z,945.45
2023-04-29T04:11:00.431Z,945.42
2023-04-29T04:12:00.423Z,945.39
2023-04-29T04:13:00.411Z,945.39
2023-04-29T04:14:00.426Z,945.38
2023-04-29T04:15:00.382Z,945.41
2023-04-29T04:16:00.429Z,945.43
2023-04-29T04:17:00.358Z,945.45
2023-04-29T04:18:00.424Z,945.42
2023-04-29T04:19:00.335Z,945.44
2023-04-29T04:20:00.331Z,945.44
2023-04-29T04:21:00.318Z,945.46
2023-04-29T04:22:00.316Z,945.46
2023-04-29T04:23:00.309Z,945.46
2023-04-29T04:24:00.294Z,945.51
2023-04-29T04:25:00.286Z,945.46
2023-04-29T04:26:00.269Z,945.49
2023-04-29T04:27:00.243Z,945.48
2023-04-29T04:28:00.247Z,945.47
2023-04-29T04:29:00.239Z,945.49
2023-04-29T04:30:00.277Z,945.55
2023-04-29T04:31:00.223Z,945.54
2023-04-29T04:32:00.239Z,945.56
2023-04-29T04:33:00.292Z,945.47
2023-04-29T04:34:00.214Z,945.48
2023-04-29T04:35:00.158Z,945.51
2023-04-29T04:36:00.168Z,945.47
2023-04-29T04:37:00.131Z,945.48
2023-04-29T04:38:00.143Z,945.49
2023-04-29T04:39:00.145Z,945.47
2023-04-29T04:40:00.135Z,945.46
2023-04-29T04:41:00.119Z,945.44
2023-04-29T04:42:00.106Z,945.46
2023-04-29T04:43:00.104Z,945.46
2023-04-29T04:44:00.097Z,945.46
2023-04-29T04:45:00.080Z,945.43
2023-04-29T04:46:00.076Z,945.49
2023-04-29T04:47:00.051Z,945.47
2023-04-29T04:48:00.018Z,945.51
2023-04-29T04:49:00.000Z,945.52
2023-04-29T04:50:00.019Z,945.54
2023-04-29T04:50:59.993Z,945.51
2023-04-29T04:51:59.980Z,945.47
2023-04-29T04:52:59.987Z,945.52
2023-04-29T04:53:59.947Z,945.48
2023-04-29T04:54:59.928Z,945.50
2023-04-29T04:55:59.932Z,945.52
2023-04-29T04:56:59.929Z,945.55
2023-04-29T04:57:59.916Z,945.55
2023-04-29T04:58:59.935Z,945.53
2023-04-29T04:59:59.890Z,945.52
2023-04-29T05:00:59.894Z,945.56
2023-04-29T05:01:59.934Z,945.52
2023-04-29T05:02:59.939Z,945.60
2023-04-29T05:03:59.952Z,945.60
2023-04-29T05:04:59.865Z,945.57
2023-04-29T05:05:59.851Z,945.52
2023-04-29T05:06:59.802Z,945.60
2023-04-29T05:07:59.785Z,945.56
2023-04-29T05:08:59.799Z,945.54
2023-04-29T05:09:59.782Z,945.57
2023-04-29T05:10:59.833Z,945.59
2023-04-29T05:11:59.754Z,945.63
2023-04-29T05:12:59.734Z,945.61
2023-04-29T05:13:59.714Z,945.59
2023-04-29T05:14:59.734Z,945.55
2023-04-29T05:16:00.208Z,945.57
2023-04-29T05:16:59.753Z,945.53
2023-04-29T05:17:59.720Z,945.59
2023-04-29T05:18:59.671Z,945.54
2023-04-29T05:19:59.648Z,945.63
2023-04-29T05:20:59.660Z,945.66
2023-04-29T05:21:59.646Z,945.66
2023-04-29T05:22:59.606Z,945.61
2023-04-29T05:23:59.620Z,945.62
2023-04-29T05:24:59.581Z,945.63
2023-04-29T05:25:59.606Z,945.64
2023-04-29T05:26:59.595Z,945.63
2023-04-29T05:27:59.570Z,945.66
2023-04-29T05:28:59.544Z,945.67
2023-04-29T05:29:59.548Z,945.66
2023-04-29T05:30:59.583Z,945.64
2023-04-29T05:31:59.521Z,945.69
2023-04-29T05:32:59.547Z,945.65
2023-04-29T05:33:59.492Z,945.71
2023-04-29T05:34:59.486Z,945.68
2023-04-29T05:35:59.481Z,945.72
2023-04-29T05:36:59.470Z,945.69
2023-04-29T05:37:59.500Z,945.68
2023-04-29T05:38:59.437Z,945.75
2023-04-29T05:39:59.413Z,945.72
2023-04-29T05:40:59.400Z,945.75
2023-04-29T05:41:59.389Z,945.81
2023-04-29T05:42:59.398Z,945.78
2023-04-29T05:43:59.364Z,945.72
2023-04-29T05:44:59.391Z,945.73
2023-04-29T05:45:59.386Z,945.78
2023-04-29T05:46:59.332Z,945.75
2023-04-29T05:47:59.401Z,945.73
2023-04-29T05:48:59.312Z,945.73
2023-04-29T05:49:59.320Z,945.74
2023-04-29T05:50:59.299Z,945.79
2023-04-29T05:51:59.271Z,945.79
2023-04-29T05:52:59.281Z,945.79
2023-04-29T05:53:59.271Z,945.81
2023-04-29T05:54:59.254Z,945.78
2023-04-29T05:55:59.247Z,945.77
2023-04-29T05:56:59.249Z,945.81
2023-04-29T05:57:59.212Z,945.82
2023-04-29T05:58:59.243Z,945.82
2023-04-29T05:59:59.186Z,945.83
2023-04-29T06:00:59.986Z,945.85
2023-04-29T06:01:59.159Z,945.87
2023-04-29T06:02:59.497Z,945.89
2023-04-29T06:03:59.367Z,945.89
2023-04-29T06:04:59.268Z,945.87
2023-04-29T06:05:59.313Z,945.88
2023-04-29T06:06:59.108Z,945.86
2023-04-29T06:07:59.093Z,945.88
2023-04-29T06:08:59.108Z,945.87
2023-04-29T06:09:59.085Z,945.88
2023-04-29T06:10:59.058Z,945.93
2023-04-29T06:11:59.064Z,945.99
2023-04-29T06:12:59.028Z,945.96
2023-04-29T06:13:59.033Z,945.98
2023-04-29T06:14:59.058Z,945.98
2023-04-29T06:15:59.013Z,945.94
2023-04-29T06:16:58.984Z,945.99
2023-04-29T06:17:59.017Z,946.03
2023-04-29T06:18:58.958Z,945.97
2023-04-29T06:19:58.952Z,945.98
2023-04-29T06:20:58.953Z,945.96
2023-04-29T06:21:58.937Z,946.03
2023-04-29T06:22:58.938Z,946.07
2023-04-29T06:23:58.905Z,946.03
2023-04-29T06:24:58.895Z,946.06
2023-04-29T06:25:58.920Z,946.11
2023-04-29T06:26:58.875Z,946.09
2023-04-29T06:27:58.879Z,946.08
2023-04-29T06:28:58.861Z,946.06
2023-04-29T06:29:58.841Z,946.14
2023-04-29T06:30:58.826Z,946.11
2023-04-29T06:31:58.852Z,946.15
2023-04-29T06:32:58.905Z,946.19
2023-04-29T06:33:58.817Z,946.19
2023-04-29T06:34:58.778Z,946.21
2023-04-29T06:35:58.765Z,946.19
2023-04-29T06:36:58.754Z,946.16
2023-04-29T06:37:58.747Z,946.14
2023-04-29T06:38:58.758Z,946.17
2023-04-29T06:39:58.739Z,946.19
2023-04-29T06:40:58.706Z,946.17
2023-04-29T06:41:58.711Z,946.18
2023-04-29T06:42:58.683Z,946.17
2023-04-29T06:43:58.691Z,946.21
2023-04-29T06:44:58.657Z,946.22
2023-04-29T06:45:58.654Z,946.20
2023-04-29T06:46:58.665Z,946.17
2023-04-29T06:47:58.681Z,946.20
2023-04-29T06:48:58.610Z,946.24
2023-04-29T06:49:58.647Z,946.20
2023-04-29T06:50:58.588Z,946.23
2023-04-29T06:51:58.613Z,946.22
2023-04-29T06:52:58.569Z,946.19
2023-04-29T06:53:58.557Z,946.23
2023-04-29T06:54:58.547Z,946.21
2023-04-29T06:55:58.556Z,946.25
2023-04-29T06:56:58.545Z,946.22
2023-04-29T06:57:58.530Z,946.20
2023-04-29T06:58:58.497Z,946.22
2023-04-29T06:59:58.488Z,946.22
2023-04-29T07:00:58.515Z,946.23
2023-04-29T07:01:58.468Z,946.23
2023-04-29T07:02:58.525Z,946.24
2023-04-29T07:03:58.644Z,946.27
2023-04-29T07:04:58.494Z,946.32
2023-04-29T07:05:58.443Z,946.24
2023-04-29T07:06:58.411Z,946.26
2023-04-29T07:07:58.397Z,946.27
2023-04-29T07:08:58.409Z,946.29
2023-04-29T07:09:58.392Z,946.27
2023-04-29T07:10:58.416Z,946.27
2023-04-29T07:11:58.353Z,946.35
2023-04-29T07:12:58.347Z,946.42
2023-04-29T07:13:59.002Z,946.40
2023-04-29T07:14:58.443Z,946.37
2023-04-29T07:15:58.323Z,946.37
2023-04-29T07:16:58.320Z,946.36
2023-04-29T07:17:58.323Z,946.38
2023-04-29T07:18:58.291Z,946.36
2023-04-29T07:19:58.256Z,946.45
2023-04-29T07:20:58.264Z,946.42
2023-04-29T07:21:58.235Z,946.50
2023-04-29T07:22:58.245Z,946.48
2023-04-29T07:23:58.211Z,946.48
2023-04-29T07:24:58.201Z,946.53
2023-04-29T07:25:58.350Z,946.48
2023-04-29T07:26:58.244Z,946.46
2023-04-29T07:27:58.164Z,946.47
2023-04-29T07:28:58.400Z,946.51
2023-04-29T07:29:58.410Z,946.49
2023-04-29T07:30:58.169Z,946.55
2023-04-29T07:31:58.138Z,946.56
2023-04-29T07:32:58.148Z,946.54
2023-04-29T07:33:58.289Z,946.54
2023-04-29T07:34:58.089Z,946.54
2023-04-29T07:35:58.078Z,946.63
2023-04-29T07:36:58.101Z,946.60
2023-04-29T07:37:58.104Z,946.59
2023-04-29T07:38:58.058Z,946.67
2023-04-29T07:39:58.027Z,946.71
2023-04-29T07:40:58.021Z,946.68
2023-04-29T07:41:58.003Z,946.68
2023-04-29T07:42:57.992Z,946.71
2023-04-29T07:43:57.998Z,946.71
2023-04-29T07:44:57.966Z,946.71
2023-04-29T07:45:58.003Z,946.70
2023-04-29T07:46:57.978Z,946.73
2023-04-29T07:47:57.950Z,946.78
2023-04-29T07:48:57.947Z,946.72
2023-04-29T07:49:57.906Z,946.81
2023-04-29T07:50:57.901Z,946.78
2023-04-29T07:51:57.886Z,946.81
2023-04-29T07:52:57.910Z,946.81
2023-04-29T07:53:57.898Z,946.81
2023-04-29T07:54:57.849Z,946.81
2023-04-29T07:55:57.853Z,946.84
2023-04-29T07:56:57.855Z,946.85
2023-04-29T07:57:59.366Z,946.86
2023-04-29T07:58:57.810Z,946.85
2023-04-29T07:59:57.790Z,946.90
2023-04-29T08:00:57.793Z,946.85
2023-04-29T08:01:57.802Z,946.87
2023-04-29T08:02:58.079Z,946.90
2023-04-29T08:03:57.931Z,946.92
2023-04-29T08:04:58.317Z,946.96
2023-04-29T08:05:57.761Z,946.94
2023-04-29T08:06:57.730Z,946.97
2023-04-29T08:07:57.691Z,946.96
2023-04-29T08:08:57.698Z,946.93
2023-04-29T08:09:57.674Z,946.96
2023-04-29T08:10:57.687Z,947.00
2023-04-29T08:11:57.679Z,947.04
2023-04-29T08:12:57.868Z,946.94
2023-04-29T08:13:57.628Z,946.96
2023-04-29T08:14:57.616Z,947.10
2023-04-29T08:15:57.630Z,947.06
2023-04-29T08:16:57.619Z,947.04
2023-04-29T08:17:57.699Z,947.03
2023-04-29T08:18:57.580Z,947.06
2023-04-29T08:19:57.565Z,946.96
2023-04-29T08:20:57.548Z,947.01
2023-04-29T08:21:57.534Z,947.05
2023-04-29T08:22:57.526Z,947.01
2023-04-29T08:23:57.533Z,947.11
2023-04-29T08:24:57.505Z,947.06
2023-04-29T08:25:57.662Z,947.18
2023-04-29T08:26:57.478Z,947.15
2023-04-29T08:27:57.493Z,947.14
2023-04-29T08:28:57.459Z,947.10
2023-04-29T08:29:57.469Z,947.13
2023-04-29T08:30:57.435Z,947.13
2023-04-29T08:31:57.537Z,947.09
2023-04-29T08:32:57.453Z,947.15
2023-04-29T08:33:57.419Z,947.12
2023-04-29T08:34:57.393Z,947.16
2023-04-29T08:35:57.405Z,947.15
2023-04-29T08:36:57.370Z,947.12
2023-04-29T08:37:57.372Z,947.16
2023-04-29T08:38:57.364Z,947.13
2023-04-29T08:39:57.330Z,947.14
2023-04-29T08:40:57.356Z,947.20
2023-04-29T08:41:57.316Z,947.30
2023-04-29T08:42:57.313Z,947.26
2023-04-29T08:43:57.295Z,947.22
2023-04-29T08:44:57.274Z,947.25
2023-04-29T08:45:57.342Z,947.26
2023-04-29T08:46:57.271Z,947.22
2023-04-29T08:47:57.312Z,947.22
2023-04-29T08:48:57.246Z,947.32
2023-04-29T08:49:57.237Z,947.38
2023-04-29T08:50:57.205Z,947.32
2023-04-29T08:51:57.228Z,947.32
2023-04-29T08:52:57.319Z,947.34
2023-04-29T08:53:57.167Z,947.32
2023-04-29T08:54:57.159Z,947.37
2023-04-29T08:55:57.208Z,947.36
2023-04-29T08:56:57.134Z,947.34
2023-04-29T08:57:57.124Z,947.40
2023-04-29T08:58:57.113Z,947.40
2023-04-29T08:59:57.118Z,947.43
2023-04-29T09:00:57.132Z,947.41
2023-04-29T09:01:57.083Z,947.42
2023-04-29T09:02:57.185Z,947.54
2023-04-29T09:03:57.299Z,947.51
2023-04-29T09:04:58.097Z,947.55
2023-04-29T09:05:58.014Z,947.50
2023-04-29T09:06:58.023Z,947.49
2023-04-29T09:07:57.048Z,947.53
2023-04-29T09:08:57.978Z,947.51
2023-04-29T09:09:56.985Z,947.54
2023-04-29T09:10:56.974Z,947.50
2023-04-29T09:11:56.979Z,947.53
2023-04-29T09:12:56.968Z,947.56
2023-04-29T09:13:56.951Z,947.55
2023-04-29T09:14:59.461Z,947.57
2023-04-29T09:15:56.958Z,947.56
2023-04-29T09:16:56.969Z,947.58
2023-04-29T09:17:57.486Z,947.57
2023-04-29T09:18:56.913Z,947.56
2023-04-29T09:19:56.872Z,947.57
2023-04-29T09:20:56.860Z,947.54
2023-04-29T09:21:56.892Z,947.61
2023-04-29T09:22:56.838Z,947.60
2023-04-29T09:23:56.842Z,947.63
2023-04-29T09:24:56.820Z,947.66
2023-04-29T09:25:56.835Z,947.69
2023-04-29T09:26:56.797Z,947.61
2023-04-29T09:27:56.805Z,947.64
2023-04-29T09:28:56.769Z,947.67
2023-04-29T09:29:56.757Z,947.65
2023-04-29T09:30:56.756Z,947.68
2023-04-29T09:32:04.482Z,947.70
2023-04-29T09:32:56.826Z,947.71
2023-04-29T09:33:56.737Z,947.73
2023-04-29T09:34:56.708Z,947.74
2023-04-29T09:35:56.697Z,947.74
2023-04-29T09:36:56.722Z,947.74
2023-04-29T09:37:56.714Z,947.79
2023-04-29T09:38:56.665Z,947.82
2023-04-29T09:39:56.640Z,947.81
2023-04-29T09:40:58.887Z,947.84
2023-04-29T09:41:56.822Z,947.80
2023-04-29T09:42:56.653Z,947.85
2023-04-29T09:43:56.611Z,947.84
2023-04-29T09:44:56.612Z,947.85
2023-04-29T09:45:56.642Z,947.83
2023-04-29T09:46:56.561Z,947.88
2023-04-29T09:47:56.597Z,947.91
2023-04-29T09:48:56.557Z,947.89
2023-04-29T09:49:56.532Z,947.87
2023-04-29T09:50:56.536Z,947.89
2023-04-29T09:51:56.526Z,947.89
2023-04-29T09:52:56.513Z,947.91
2023-04-29T09:53:56.573Z,947.91
2023-04-29T09:54:56.477Z,947.94
2023-04-29T09:55:56.458Z,947.89
2023-04-29T09:56:56.476Z,947.91
2023-04-29T09:57:56.445Z,947.92
2023-04-29T09:58:56.437Z,947.97
2023-04-29T09:59:56.412Z,947.95
2023-04-29T10:00:56.435Z,947.92
2023-04-29T10:01:56.755Z,948.05
2023-04-29T10:02:56.492Z,947.96
2023-04-29T10:03:56.434Z,947.96
2023-04-29T10:04:57.318Z,947.97
2023-04-29T10:05:56.341Z,948.00
2023-04-29T10:06:56.365Z,948.00
2023-04-29T10:07:56.350Z,948.01
2023-04-29T10:08:56.315Z,948.04
2023-04-29T10:09:56.344Z,948.02
2023-04-29T10:10:58.073Z,947.98
2023-04-29T10:11:56.296Z,948.04
2023-04-29T10:12:56.309Z,948.09
2023-04-29T10:13:56.250Z,948.09
2023-04-29T10:14:56.289Z,948.11
2023-04-29T10:15:56.240Z,948.00
2023-04-29T10:16:56.218Z,948.04
2023-04-29T10:17:56.208Z,948.01
2023-04-29T10:18:56.281Z,948.04
2023-04-29T10:19:56.178Z,948.02
2023-04-29T10:20:56.171Z,948.07
2023-04-29T10:21:56.176Z,947.98
2023-04-29T10:22:56.177Z,948.03
2023-04-29T10:23:56.134Z,948.01
2023-04-29T10:24:56.138Z,948.03
2023-04-29T10:25:56.143Z,948.00
2023-04-29T10:26:56.147Z,947.99
2023-04-29T10:27:56.115Z,947.98
2023-04-29T10:28:56.108Z,947.98
2023-04-29T10:29:56.071Z,948.05
2023-04-29T10:30:56.125Z,948.02
2023-04-29T10:31:56.121Z,948.10
2023-04-29T10:32:56.097Z,948.07
2023-04-29T10:33:56.023Z,948.04
2023-04-29T10:34:56.014Z,948.02
2023-04-29T10:35:56.007Z,948.06
2023-04-29T10:36:56.101Z,947.99
2023-04-29T10:37:56.005Z,948.02
2023-04-29T10:38:55.969Z,948.00
2023-04-29T10:39:55.960Z,948.04
2023-04-29T10:40:55.950Z,948.08
2023-04-29T10:41:55.973Z,948.05
2023-04-29T10:42:55.954Z,948.00
2023-04-29T10:43:55.908Z,948.06
2023-04-29T10:47:39.390Z,948.03
2023-04-29T10:48:39.350Z,948.02
2023-04-29T10:49:39.317Z,948.00
2023-04-29T10:50:39.322Z,947.91
2023-04-29T10:55:51.879Z,948.16
2023-04-29T10:56:51.827Z,948.16
2023-04-29T10:57:51.926Z,948.20
2023-04-29T10:58:51.912Z,948.18
2023-04-29T10:59:51.853Z,948.20
2023-04-29T11:00:51.940Z,948.15
2023-04-29T11:01:51.802Z,948.19
2023-04-29T11:02:51.890Z,948.18
2023-04-29T11:03:52.055Z,948.15
